Date,TemperatureHighF,TemperatureAvgF,TemperatureLowF,DewpointHighF,DewpointAvgF,DewpointLowF,HumidityHigh,HumidityAvg,HumidityLow,PressureMaxIn,PressureMinIn,WindSpeedMaxMPH,WindSpeedAvgMPH,GustSpeedMaxMPH,PrecipitationSumIn
2013-7-1,106,93,79,44,38,28,29,16,8,0.00,40.00,21,9,29,0.00
2013-7-2,104,89,77,47,43,37,32,22,10,0.00,40.00,19,8,31,0.00
2013-7-3,104,92,78,46,41,34,30,18,9,0.00,40.00,18,11,28,0.00
2013-7-4,105,93,81,49,44,37,31,20,10,0.00,40.00,16,9,27,0.00
2013-7-5,100,88,73,50,46,36,41,25,13,0.00,40.00,17,9,34,0.00
2013-7-6,100,86,74,49,35,21,40,18,7,0.00,40.00,15,8,30,0.00
2013-7-7,100,87,70,44,32,21,37,17,6,0.00,40.00,14,7,31,0.00
2013-7-8,98,88,81,25,21,15,11,9,5,0.00,40.00,16,12,31,0.00
2013-7-9,99,89,81,30,22,13,13,9,5,0.00,40.00,16,12,34,0.00
2013-7-10,96,88,81,43,30,-100,23,13,9,0.00,40.00,19,14,35,0.00
2013-7-11,86,79,73,55,46,42,53,32,23,0.00,40.00,17,8,33,0.00
2013-7-12,92,79,67,46,38,11,47,27,6,0.00,40.00,13,6,28,0.00
2013-7-13,96,86,76,34,27,19,18,12,8,0.00,40.00,17,11,34,0.00
2013-7-14,100,88,79,38,32,28,19,14,8,0.00,40.00,17,10,33,0.00
2013-7-15,95,86,74,41,33,26,20,15,11,0.00,40.00,15,9,33,0.00
2013-7-16,93,86,77,27,13,-9,13,8,2,0.00,40.00,20,12,27,0.00
2013-7-17,96,80,64,34,23,2,23,14,3,0.00,40.00,15,6,23,0.00
2013-7-18,100,87,71,38,28,9,26,14,4,0.00,40.00,12,6,20,0.00
2013-7-19,102,89,74,39,33,21,26,15,6,0.00,40.00,18,7,26,0.00
2013-7-20,101,86,73,51,40,-100,37,20,13,0.00,40.00,20,9,27,0.00
2013-7-21,91,83,75,62,55,50,60,40,28,0.00,40.00,14,9,23,0.00
2013-7-22,94,78,69,65,56,48,87,48,30,0.00,40.00,22,7,33,0.00
2013-7-23,92,81,67,65,57,50,87,48,28,0.00,40.00,17,8,27,0.00
2013-7-24,99,86,72,55,49,41,50,30,15,0.00,40.00,16,7,24,0.00
2013-7-25,101,88,74,49,45,38,40,24,13,0.00,40.00,17,7,29,0.00
2013-7-26,93,84,79,56,49,38,41,30,18,0.00,40.00,20,8,26,0.00
2013-7-27,93,82,74,61,55,48,64,40,28,0.00,40.00,15,8,21,0.00
2013-7-28,96,83,69,52,47,32,45,30,12,0.00,40.00,14,6,29,0.00
2013-7-29,92,80,68,43,30,11,35,19,5,0.00,40.00,23,8,32,0.00
2013-7-30,96,82,67,43,38,31,28,21,13,0.00,40.00,21,8,33,0.00
2013-7-31,96,83,68,45,26,-100,33,17,3,0.00,40.00,16,8,33,0.00